Time;durP1;ratioP1;P1;durP2;ratioP2;P2;SDS_P1;SDS_P2;PMS_P1;PMS_P2;Temp;Humidity;BMP_temperature;BMP_pressure;BME280_temperature;BME280_humidity;BME280_pressure;Samples;Min_cycle;Max_cycle;Signal;HPM_P1;HPM_P2
2022/08/21 00:00:28;;;;;;;6.53;1.70;;;23.30;56.80;;;;;;4975968;28;20512;-59
2022/08/21 00:03:03;;;;;;;10.90;2.00;;;23.30;56.80;;;;;;4977980;28;20046;-59
2022/08/21 00:05:29;;;;;;;5.75;1.83;;;23.30;56.80;;;;;;4977078;28;20029;-59
2022/08/21 00:07:55;;;;;;;7.45;1.98;;;23.30;56.80;;;;;;4978218;28;20027;-60
2022/08/21 00:10:21;;;;;;;13.48;2.10;;;23.30;56.70;;;;;;4975906;28;20093;-60
2022/08/21 00:12:47;;;;;;;6.60;1.90;;;23.30;56.70;;;;;;4976390;28;20089;-59
2022/08/21 00:15:14;;;;;;;7.75;1.80;;;23.20;56.70;;;;;;4975134;28;20023;-59
2022/08/21 00:17:40;;;;;;;6.30;1.98;;;23.30;56.80;;;;;;4977619;28;20476;-60
2022/08/21 00:20:08;;;;;;;6.65;1.65;;;23.30;56.80;;;;;;4974916;28;20058;-60
2022/08/21 00:22:34;;;;;;;7.70;1.85;;;23.20;56.70;;;;;;4977038;28;20081;-59
2022/08/21 00:24:59;;;;;;;6.70;1.80;;;23.20;56.70;;;;;;4975631;28;20022;-59
2022/08/21 00:27:25;;;;;;;8.80;2.10;;;23.20;56.70;;;;;;4977597;28;20516;-59
2022/08/21 00:29:53;;;;;;;8.20;1.90;;;23.20;56.70;;;;;;4974516;28;20113;-60
2022/08/21 00:32:22;;;;;;;7.18;1.73;;;23.20;56.80;;;;;;4980712;28;20564;-60
2022/08/21 00:34:48;;;;;;;5.35;1.67;;;23.20;56.70;;;;;;4976460;28;20075;-60
2022/08/21 00:37:14;;;;;;;7.75;2.20;;;23.20;56.80;;;;;;4974148;28;20835;-60
2022/08/21 00:39:39;;;;;;;7.32;2.10;;;23.20;56.70;;;;;;4977619;28;20113;-60
2022/08/21 00:42:05;;;;;;;7.05;1.92;;;23.20;56.70;;;;;;4976987;28;20030;-60
2022/08/21 00:44:31;;;;;;;5.85;1.65;;;23.20;56.70;;;;;;4973931;28;20086;-60
2022/08/21 00:46:57;;;;;;;7.43;1.88;;;23.20;56.80;;;;;;4973536;28;20424;-60
2022/08/21 00:49:22;;;;;;;6.68;1.70;;;23.10;56.80;;;;;;4975712;28;20090;-60
2022/08/21 00:51:53;;;;;;;3.95;1.40;;;23.10;56.80;;;;;;4975274;28;20049;-60
2022/08/21 00:54:20;;;;;;;8.75;1.77;;;23.10;56.80;;;;;;4976832;28;20142;-59
2022/08/21 00:56:48;;;;;;;6.53;1.52;;;23.20;56.90;;;;;;4974638;28;20042;-59
2022/08/21 00:59:16;;;;;;;6.97;1.77;;;23.10;57.90;;;;;;4976415;28;20134;-60
2022/08/21 01:01:41;;;;;;;6.65;1.67;;;23.10;56.80;;;;;;4977888;28;20063;-60
2022/08/21 01:04:07;;;;;;;6.90;1.80;;;23.10;56.80;;;;;;4972216;28;20097;-60
2022/08/21 01:06:32;;;;;;;7.35;2.00;;;23.10;56.80;;;;;;4979172;28;20106;-60
2022/08/21 01:08:58;;;;;;;6.78;2.15;;;23.10;56.90;;;;;;4978587;28;20065;-60
2022/08/21 01:11:24;;;;;;;6.07;1.85;;;23.10;56.90;;;;;;4973743;28;20031;-59
2022/08/21 01:13:51;;;;;;;5.80;1.70;;;23.10;56.90;;;;;;4973689;28;20018;-59
2022/08/21 01:16:18;;;;;;;7.32;1.90;;;23.10;56.90;;;;;;4979409;28;20030;-60
2022/08/21 01:18:44;;;;;;;6.25;1.80;;;23.10;56.90;;;;;;4958001;28;20027;-60
2022/08/21 01:21:14;;;;;;;9.00;2.03;;;23.10;56.90;;;;;;4974861;28;20116;-60
2022/08/21 01:23:42;;;;;;;7.03;1.73;;;23.10;56.90;;;;;;4978682;28;20522;-60
2022/08/21 01:26:07;;;;;;;5.68;1.70;;;23.00;56.90;;;;;;4972722;28;20540;-60
2022/08/21 01:28:37;;;;;;;5.10;1.58;;;23.00;56.90;;;;;;4978506;28;20097;-60
2022/08/21 01:31:04;;;;;;;7.95;1.75;;;23.00;56.90;;;;;;4974353;28;20093;-59
2022/08/21 01:33:30;;;;;;;5.72;1.83;;;23.10;56.90;;;;;;4976233;28;20117;-59
2022/08/21 01:35:56;;;;;;;5.25;1.73;;;23.00;57.00;;;;;;4975558;28;20558;-60
2022/08/21 01:38:21;;;;;;;6.80;1.50;;;23.00;56.90;;;;;;4973796;28;20038;-60
2022/08/21 01:40:47;;;;;;;5.75;1.60;;;23.00;56.90;;;;;;4974454;28;20026;-60
2022/08/21 01:43:13;;;;;;;6.00;1.70;;;23.00;56.90;;;;;;4973427;28;20035;-60
2022/08/21 01:45:38;;;;;;;6.28;1.75;;;23.00;57.00;;;;;;4978888;28;20030;-59
2022/08/21 01:48:04;;;;;;;6.45;1.70;;;23.00;57.00;;;;;;4977022;28;20475;-59
2022/08/21 01:50:30;;;;;;;5.28;1.40;;;23.00;57.00;;;;;;4977120;28;20490;-60
2022/08/21 01:52:55;;;;;;;6.00;1.65;;;23.00;57.00;;;;;;4975572;28;20026;-59
2022/08/21 01:55:21;;;;;;;5.85;1.70;;;23.00;57.00;;;;;;4973816;28;20038;-60
2022/08/21 01:57:47;;;;;;;6.35;1.77;;;23.00;57.00;;;;;;4975292;28;20506;-60
2022/08/21 02:00:14;;;;;;;4.13;1.67;;;23.00;57.00;;;;;;4975450;28;20035;-59
2022/08/21 02:02:40;;;;;;;7.50;1.80;;;23.00;57.00;;;;;;4972337;28;20058;-60
2022/08/21 02:05:06;;;;;;;6.80;1.73;;;22.90;57.00;;;;;;4977172;28;20106;-60
2022/08/21 02:07:46;;;;;;;4.90;1.50;;;22.90;57.10;;;;;;4976332;28;20026;-60
2022/08/21 02:10:17;;;;;;;6.20;1.85;;;22.90;57.10;;;;;;4970371;28;20567;-60
2022/08/21 02:12:43;;;;;;;6.95;1.80;;;22.90;57.20;;;;;;4975494;28;20487;-60
2022/08/21 02:15:09;;;;;;;6.43;1.75;;;22.90;57.10;;;;;;4973297;28;20033;-59
2022/08/21 02:17:43;;;;;;;5.43;1.65;;;22.90;57.10;;;;;;4974263;28;20038;-60
2022/08/21 02:20:09;;;;;;;6.82;1.80;;;22.90;57.10;;;;;;4976290;28;22254;-60
2022/08/21 02:22:35;;;;;;;8.55;1.60;;;22.90;57.10;;;;;;4974850;28;20037;-60
2022/08/21 02:25:00;;;;;;;6.43;1.42;;;22.90;57.20;;;;;;4978024;28;20407;-59
2022/08/21 02:27:26;;;;;;;6.63;1.60;;;22.90;57.20;;;;;;4973639;28;20034;-60
2022/08/21 02:29:52;;;;;;;4.95;1.85;;;22.90;57.20;;;;;;4975663;28;20031;-59
2022/08/21 02:32:17;;;;;;;6.10;1.65;;;22.90;57.20;;;;;;4977653;28;20038;-60
2022/08/21 02:34:43;;;;;;;5.25;1.85;;;22.80;57.20;;;;;;4968632;28;20035;-60
2022/08/21 02:37:08;;;;;;;5.78;1.60;;;22.80;57.20;;;;;;4973856;28;20022;-60
2022/08/21 02:39:34;;;;;;;7.35;1.73;;;22.90;57.30;;;;;;4965799;28;20027;-59
2022/08/21 02:45:22;;;;;;;5.93;1.50;;;22.90;57.30;;;;;;4969813;28;20154;-60
2022/08/21 02:47:52;;;;;;;5.68;1.60;;;22.80;57.20;;;;;;4975365;28;20071;-60
2022/08/21 02:50:20;;;;;;;4.90;1.52;;;22.90;57.30;;;;;;4971502;28;20487;-60
2022/08/21 02:52:45;;;;;;;6.50;1.60;;;22.80;57.20;;;;;;4974206;28;20395;-60
2022/08/21 02:55:11;;;;;;;5.28;1.58;;;22.80;57.30;;;;;;4971448;28;20031;-60
2022/08/21 02:57:37;;;;;;;6.65;1.60;;;22.80;57.30;;;;;;4975485;28;20023;-59
2022/08/21 03:00:04;;;;;;;6.95;1.50;;;22.80;57.30;;;;;;4974423;28;20038;-59
2022/08/21 03:02:30;;;;;;;6.63;1.70;;;22.80;57.20;;;;;;4972824;28;20145;-59
2022/08/21 03:04:56;;;;;;;5.85;1.63;;;22.80;57.30;;;;;;4967952;28;20546;-60
2022/08/21 03:07:21;;;;;;;8.15;1.83;;;22.80;57.30;;;;;;4972743;28;20019;-60
2022/08/21 03:09:47;;;;;;;5.10;1.55;;;22.80;57.30;;;;;;4974466;28;20117;-59
2022/08/21 03:12:13;;;;;;;5.70;1.60;;;22.80;57.30;;;;;;4974819;28;20030;-60
2022/08/21 03:14:38;;;;;;;6.25;1.60;;;22.80;57.30;;;;;;4972408;28;20034;-59
2022/08/21 03:17:04;;;;;;;6.07;1.60;;;22.80;57.30;;;;;;4971687;28;20106;-60
2022/08/21 03:19:30;;;;;;;4.43;1.60;;;22.80;57.30;;;;;;4973925;28;20046;-59
2022/08/21 03:21:56;;;;;;;5.82;1.80;;;22.70;57.30;;;;;;4971471;28;20053;-60
2022/08/21 03:24:22;;;;;;;6.68;1.70;;;22.70;57.30;;;;;;4976009;28;20050;-60
2022/08/21 03:26:47;;;;;;;6.75;1.50;;;22.80;57.30;;;;;;4974458;28;20146;-60
2022/08/21 03:29:13;;;;;;;4.85;1.40;;;22.80;57.40;;;;;;4974472;28;20057;-59
2022/08/21 03:31:39;;;;;;;5.57;1.52;;;22.70;57.30;;;;;;4976138;28;20035;-60
2022/08/21 03:34:05;;;;;;;8.68;1.42;;;22.70;57.30;;;;;;4976094;28;20096;-59
2022/08/21 03:36:37;;;;;;;5.63;1.40;;;22.70;57.30;;;;;;4978427;28;20526;-60
2022/08/21 03:39:06;;;;;;;5.15;1.55;;;22.70;57.30;;;;;;4972416;28;20047;-59
2022/08/21 03:41:32;;;;;;;5.28;1.50;;;22.70;57.30;;;;;;4977096;28;20490;-59
2022/08/21 03:43:58;;;;;;;6.20;1.58;;;22.70;57.30;;;;;;4975611;28;20400;-60
2022/08/21 03:46:24;;;;;;;5.38;1.58;;;22.70;57.30;;;;;;4978738;28;20034;-60
2022/08/21 03:48:52;;;;;;;4.68;1.30;;;22.70;57.30;;;;;;4976951;28;20039;-60
2022/08/21 03:51:18;;;;;;;5.22;1.60;;;22.70;57.40;;;;;;4976549;28;20030;-60
2022/08/21 03:53:44;;;;;;;5.53;1.48;;;22.70;57.40;;;;;;4979100;28;20037;-59
2022/08/21 03:56:10;;;;;;;5.43;1.40;;;22.70;57.50;;;;;;4975980;28;20054;-59
2022/08/21 03:58:36;;;;;;;6.82;1.70;;;22.70;57.40;;;;;;4978141;28;20077;-60
2022/08/21 04:01:02;;;;;;;3.33;1.40;;;22.70;57.40;;;;;;4978538;28;20446;-60
2022/08/21 04:03:28;;;;;;;4.93;1.52;;;22.70;57.40;;;;;;4975012;28;20045;-59
2022/08/21 04:05:54;;;;;;;3.45;1.23;;;22.70;57.50;;;;;;4975351;28;20499;-60
2022/08/21 04:08:19;;;;;;;5.78;1.70;;;22.70;57.50;;;;;;4981424;28;20027;-60
2022/08/21 04:10:46;;;;;;;5.97;1.73;;;22.70;57.40;;;;;;4977180;28;20030;-59
2022/08/21 04:13:12;;;;;;;5.72;1.77;;;22.70;57.40;;;;;;4975978;28;20026;-59
2022/08/21 04:15:37;;;;;;;5.03;1.52;;;22.70;57.50;;;;;;4977462;28;20030;-59
2022/08/21 04:18:03;;;;;;;4.95;1.60;;;22.60;57.40;;;;;;4976608;28;20050;-60
2022/08/21 04:20:29;;;;;;;5.07;1.55;;;22.60;57.40;;;;;;4975696;28;20368;-59
2022/08/21 04:22:55;;;;;;;4.38;1.20;;;22.60;57.40;;;;;;4977402;28;20061;-60
2022/08/21 04:25:21;;;;;;;4.10;1.33;;;22.60;57.50;;;;;;4976963;28;20562;-60
2022/08/21 04:27:47;;;;;;;5.18;1.50;;;22.60;57.50;;;;;;4977134;28;20098;-59
2022/08/21 04:30:13;;;;;;;5.30;1.48;;;22.60;57.40;;;;;;4975400;28;20130;-59
2022/08/21 04:32:43;;;;;;;3.25;1.10;;;22.60;57.50;;;;;;4976974;28;20038;-59
2022/08/21 04:35:09;;;;;;;4.68;1.45;;;22.60;57.50;;;;;;4978258;28;20038;-60
2022/08/21 04:37:35;;;;;;;5.13;1.58;;;22.60;57.50;;;;;;4976182;28;20026;-60
2022/08/21 04:40:01;;;;;;;4.88;1.50;;;22.60;57.50;;;;;;4980058;28;20042;-60
2022/08/21 04:42:27;;;;;;;3.75;1.40;;;22.60;57.50;;;;;;4977720;28;20022;-60
2022/08/21 04:44:53;;;;;;;3.33;1.27;;;22.60;57.50;;;;;;4978610;28;20126;-59
2022/08/21 04:47:19;;;;;;;4.53;1.30;;;22.60;57.60;;;;;;4975967;28;20058;-60
2022/08/21 04:49:45;;;;;;;5.18;1.42;;;22.60;57.60;;;;;;4976843;28;20034;-60
2022/08/21 04:52:11;;;;;;;2.42;1.15;;;22.60;57.60;;;;;;4974466;28;20085;-59
2022/08/21 04:54:37;;;;;;;4.07;1.30;;;22.60;57.60;;;;;;4975603;28;20022;-59
2022/08/21 04:57:05;;;;;;;4.55;1.50;;;22.60;58.60;;;;;;4978286;28;20034;-59
2022/08/21 04:59:36;;;;;;;4.35;1.33;;;22.60;57.70;;;;;;4970384;28;20421;-60
2022/08/21 05:02:03;;;;;;;5.88;1.40;;;22.60;57.60;;;;;;4974079;28;20598;-60
2022/08/21 05:05:37;;;;;;;5.53;1.50;;;22.60;57.60;;;;;;4977594;28;20054;-60
2022/08/21 05:08:04;;;;;;;4.85;1.52;;;22.60;57.60;;;;;;4974200;28;20027;-60
2022/08/21 05:10:31;;;;;;;6.03;1.65;;;22.50;57.60;;;;;;4973813;28;20038;-60
2022/08/21 05:12:57;;;;;;;3.85;1.17;;;22.60;57.70;;;;;;4977694;28;20027;-59
2022/08/21 05:15:22;;;;;;;4.65;1.30;;;22.50;57.60;;;;;;4977575;28;20031;-60
2022/08/21 05:17:50;;;;;;;4.22;1.33;;;22.50;57.60;;;;;;4974605;28;20074;-59
2022/08/21 05:20:16;;;;;;;4.00;1.67;;;22.60;57.70;;;;;;4975765;28;20561;-60
2022/08/21 05:22:41;;;;;;;4.90;1.50;;;22.50;57.70;;;;;;4977291;28;20065;-59
2022/08/21 05:25:07;;;;;;;4.63;1.60;;;22.50;57.60;;;;;;4977559;28;20084;-59
2022/08/21 05:27:33;;;;;;;4.65;1.30;;;22.50;57.60;;;;;;4972882;28;20026;-60
2022/08/21 05:29:59;;;;;;;4.80;1.58;;;22.50;57.70;;;;;;4973294;28;20515;-60
2022/08/21 05:32:25;;;;;;;4.72;1.35;;;22.50;57.70;;;;;;4973628;28;20106;-59
2022/08/21 05:34:50;;;;;;;3.58;1.30;;;22.50;57.70;;;;;;4974575;28;20124;-60
2022/08/21 05:37:16;;;;;;;4.93;1.20;;;22.50;57.70;;;;;;4975326;28;20154;-60
2022/08/21 05:39:42;;;;;;;3.03;1.20;;;22.50;57.80;;;;;;4973166;28;20048;-59
2022/08/21 05:42:08;;;;;;;3.45;1.30;;;22.50;57.70;;;;;;4975376;28;20037;-60
2022/08/21 05:44:33;;;;;;;3.40;1.30;;;22.50;57.70;;;;;;4972014;28;20031;-60
2022/08/21 05:47:09;;;;;;;4.20;1.17;;;22.50;57.80;;;;;;4974221;28;20049;-60
2022/08/21 05:49:34;;;;;;;3.72;1.48;;;22.50;57.80;;;;;;4978901;28;20422;-59
2022/08/21 05:52:00;;;;;;;4.57;1.27;;;22.50;57.80;;;;;;4974108;28;20023;-60
2022/08/21 05:54:26;;;;;;;4.47;1.40;;;22.50;57.80;;;;;;4975937;28;20042;-60
2022/08/21 05:56:52;;;;;;;4.05;1.30;;;22.50;57.70;;;;;;4978772;28;20029;-59
2022/08/21 05:59:18;;;;;;;3.88;1.20;;;22.50;57.80;;;;;;4971415;28;20072;-60
2022/08/21 06:01:45;;;;;;;3.47;1.02;;;22.50;57.80;;;;;;4975891;28;20027;-60
2022/08/21 06:04:11;;;;;;;4.10;1.30;;;22.50;57.70;;;;;;4978485;28;20034;-59
2022/08/21 06:06:36;;;;;;;5.18;1.30;;;22.50;57.80;;;;;;4973720;28;20052;-58
2022/08/21 06:09:02;;;;;;;3.45;1.30;;;22.50;57.80;;;;;;4975625;28;20031;-60
2022/08/21 06:11:28;;;;;;;4.20;1.25;;;22.50;57.80;;;;;;4973402;28;20023;-59
2022/08/21 06:13:54;;;;;;;3.85;1.30;;;22.50;57.80;;;;;;4974904;28;20034;-59
2022/08/21 06:16:19;;;;;;;2.78;1.33;;;22.50;57.80;;;;;;4972188;28;20030;-60
2022/08/21 06:18:45;;;;;;;3.72;1.25;;;22.40;57.70;;;;;;4976316;28;20047;-59
2022/08/21 06:21:11;;;;;;;4.93;1.38;;;22.40;57.70;;;;;;4973662;28;20101;-59
2022/08/21 06:23:37;;;;;;;4.25;1.40;;;22.40;57.70;;;;;;4973825;28;20045;-59
2022/08/21 06:26:04;;;;;;;4.43;1.48;;;22.40;57.70;;;;;;4972153;28;20035;-59
2022/08/21 06:28:30;;;;;;;2.58;1.25;;;22.40;57.70;;;;;;4974836;28;20037;-59
2022/08/21 06:30:55;;;;;;;4.03;1.20;;;22.40;57.80;;;;;;4974898;28;20106;-59
2022/08/21 06:33:21;;;;;;;3.58;1.17;;;22.40;57.70;;;;;;4974532;28;20039;-60
2022/08/21 06:35:47;;;;;;;3.75;1.20;;;22.40;57.70;;;;;;4975818;28;20144;-59
2022/08/21 06:38:12;;;;;;;3.92;1.27;;;22.40;57.70;;;;;;4975621;28;20088;-59
2022/08/21 06:40:38;;;;;;;4.50;1.30;;;22.40;57.80;;;;;;4975276;28;20463;-59
2022/08/21 06:43:10;;;;;;;5.53;1.35;;;22.40;57.80;;;;;;4974446;28;20564;-60
2022/08/21 06:45:36;;;;;;;5.53;1.30;;;22.40;57.80;;;;;;4974919;28;20034;-59
2022/08/21 06:48:02;;;;;;;3.75;1.30;;;22.40;57.80;;;;;;4974688;28;20035;-60
2022/08/21 06:50:28;;;;;;;3.08;1.20;;;22.40;57.80;;;;;;4975487;28;20030;-59
2022/08/21 06:53:03;;;;;;;6.50;1.48;;;22.40;57.90;;;;;;4975058;28;20035;-59
2022/08/21 06:55:29;;;;;;;3.58;1.20;;;22.40;57.80;;;;;;4974421;28;20031;-59
2022/08/21 06:57:54;;;;;;;2.72;1.20;;;22.40;57.80;;;;;;4972435;28;20097;-60
2022/08/21 07:00:20;;;;;;;4.80;1.40;;;22.40;57.80;;;;;;4973068;28;20030;-60
2022/08/21 07:02:46;;;;;;;4.03;1.30;;;22.40;58.00;;;;;;4975952;28;20033;-59
2022/08/21 07:05:12;;;;;;;4.25;1.35;;;22.40;57.80;;;;;;4974749;28;20038;-59
2022/08/21 07:07:37;;;;;;;2.70;1.10;;;22.40;57.80;;;;;;4974402;28;20029;-60
2022/08/21 07:10:03;;;;;;;3.67;1.30;;;22.30;57.80;;;;;;4979378;28;20038;-60
2022/08/21 07:12:30;;;;;;;4.95;1.23;;;22.40;57.90;;;;;;4978026;28;20030;-60
2022/08/21 07:14:55;;;;;;;5.93;1.40;;;22.40;57.90;;;;;;4975451;28;20396;-60
2022/08/21 07:17:21;;;;;;;5.55;1.33;;;22.30;57.80;;;;;;4975947;28;20059;-59
2022/08/21 07:19:46;;;;;;;4.72;1.30;;;22.30;57.80;;;;;;4975718;28;20091;-59
2022/08/21 07:22:12;;;;;;;4.60;1.50;;;22.30;57.90;;;;;;4980437;28;20026;-60
2022/08/21 07:24:38;;;;;;;3.83;1.25;;;22.30;57.90;;;;;;4983190;28;20603;-59
2022/08/21 07:27:03;;;;;;;3.95;1.10;;;22.30;57.90;;;;;;4979166;28;20312;-60
2022/08/21 07:29:29;;;;;;;4.15;1.40;;;22.30;57.90;;;;;;4979177;28;20129;-60
2022/08/21 07:31:55;;;;;;;3.25;1.27;;;22.30;57.90;;;;;;4978265;28;20027;-60
2022/08/21 07:34:20;;;;;;;3.40;1.20;;;22.30;57.90;;;;;;4980246;28;20065;-60
2022/08/21 07:36:46;;;;;;;2.83;1.15;;;22.30;57.90;;;;;;4975531;28;20026;-60
2022/08/21 07:39:12;;;;;;;5.22;1.50;;;22.30;57.90;;;;;;4977445;28;20034;-60
2022/08/21 07:41:38;;;;;;;3.28;1.33;;;22.30;57.90;;;;;;4976908;28;20031;-60
2022/08/21 07:44:03;;;;;;;3.25;1.30;;;22.30;58.00;;;;;;4978944;28;20030;-60
2022/08/21 07:46:29;;;;;;;4.22;1.45;;;22.30;57.90;;;;;;4978986;28;20106;-60
2022/08/21 07:48:55;;;;;;;4.28;1.40;;;22.30;58.00;;;;;;4975628;28;20050;-60
2022/08/21 07:51:23;;;;;;;4.78;1.40;;;22.30;58.00;;;;;;4974731;28;20141;-60
2022/08/21 07:53:50;;;;;;;3.08;1.20;;;22.30;58.00;;;;;;4968451;28;20018;-60
2022/08/21 07:56:16;;;;;;;3.65;1.13;;;22.30;58.00;;;;;;4981014;28;20475;-60
2022/08/21 07:58:42;;;;;;;3.42;1.02;;;22.30;58.00;;;;;;4978238;28;20046;-60
2022/08/21 08:01:07;;;;;;;4.97;1.48;;;22.20;58.00;;;;;;4972067;28;20034;-60
2022/08/21 08:03:33;;;;;;;3.50;1.20;;;22.30;58.10;;;;;;4980271;28;20117;-60
2022/08/21 08:05:59;;;;;;;5.30;1.50;;;22.30;58.10;;;;;;4974711;28;20037;-60
2022/08/21 08:08:26;;;;;;;4.47;1.50;;;22.30;58.10;;;;;;4976480;28;20042;-61
2022/08/21 08:10:53;;;;;;;3.42;1.23;;;22.20;58.00;;;;;;4975987;28;20124;-60
2022/08/21 08:13:19;;;;;;;4.93;1.70;;;22.30;58.20;;;;;;4979778;28;20027;-60
2022/08/21 08:15:44;;;;;;;4.60;1.50;;;22.30;58.20;;;;;;4974170;28;20360;-60
2022/08/21 08:18:10;;;;;;;4.10;1.20;;;22.20;58.10;;;;;;4979756;28;20391;-60
2022/08/21 08:20:35;;;;;;;3.72;1.30;;;22.20;58.10;;;;;;4980201;28;20045;-60
2022/08/21 08:23:02;;;;;;;4.35;1.30;;;22.20;58.10;;;;;;4973799;28;20173;-60
2022/08/21 08:25:27;;;;;;;4.80;1.40;;;22.20;58.10;;;;;;4969711;28;20039;-60
2022/08/21 08:27:55;;;;;;;5.13;1.42;;;22.20;58.10;;;;;;4968642;28;20033;-59
2022/08/21 08:30:21;;;;;;;4.40;1.30;;;22.30;58.20;;;;;;4969298;28;20042;-59
2022/08/21 08:32:47;;;;;;;5.70;1.63;;;22.30;58.10;;;;;;4976230;28;20038;-60
2022/08/21 08:35:13;;;;;;;5.55;1.17;;;22.30;58.20;;;;;;4976631;28;20031;-60
2022/08/21 08:37:40;;;;;;;4.13;1.40;;;22.30;58.20;;;;;;4968045;28;20023;-60
2022/08/21 08:40:10;;;;;;;4.15;1.10;;;22.30;58.30;;;;;;4976533;28;20035;-60
2022/08/21 08:42:35;;;;;;;4.15;1.33;;;22.30;58.20;;;;;;4975044;28;20026;-60
2022/08/21 08:45:12;;;;;;;5.32;1.33;;;22.30;58.30;;;;;;4973881;28;20031;-60
2022/08/21 08:47:42;;;;;;;3.85;1.35;;;22.30;58.30;;;;;;4972762;28;20027;-60
2022/08/21 08:50:17;;;;;;;4.05;1.40;;;22.30;58.30;;;;;;4958190;28;20070;-60
2022/08/21 08:52:49;;;;;;;3.20;1.20;;;22.30;58.40;;;;;;4974638;28;20050;-60
2022/08/21 08:55:18;;;;;;;4.55;1.40;;;22.30;58.30;;;;;;4966979;28;20037;-59
2022/08/21 08:57:47;;;;;;;4.88;1.45;;;22.30;58.60;;;;;;4974106;28;20022;-61
2022/08/21 09:00:14;;;;;;;6.43;1.42;;;22.30;58.40;;;;;;4959649;28;20034;-61
2022/08/21 09:02:40;;;;;;;5.57;1.30;;;22.30;58.90;;;;;;4971118;28;20023;-60
2022/08/21 09:05:07;;;;;;;6.88;1.50;;;22.30;58.70;;;;;;4975334;28;20157;-61
2022/08/21 09:07:51;;;;;;;5.03;1.40;;;22.30;58.90;;;;;;4976950;28;20019;-60
2022/08/21 09:10:24;;;;;;;4.53;1.37;;;22.30;58.70;;;;;;4974554;28;20035;-60
2022/08/21 09:13:17;;;;;;;4.30;1.30;;;22.30;58.60;;;;;;4968246;28;20064;-61
2022/08/21 09:16:14;;;;;;;6.22;1.65;;;22.30;59.00;;;;;;4967788;28;20025;-60
2022/08/21 09:19:04;;;;;;;6.68;1.90;;;22.40;59.20;;;;;;4973817;28;20061;-60
2022/08/21 09:21:43;;;;;;;8.10;1.80;;;22.40;59.40;;;;;;4982397;28;20029;-60
2022/08/21 09:24:33;;;;;;;6.38;1.77;;;22.40;59.00;;;;;;4958185;28;20071;-60
2022/08/21 09:27:08;;;;;;;5.65;1.42;;;22.40;59.10;;;;;;4975666;28;20037;-60
2022/08/21 09:29:43;;;;;;;4.47;1.48;;;22.40;59.20;;;;;;4971458;28;20092;-60
2022/08/21 09:32:19;;;;;;;5.38;1.23;;;22.30;59.00;;;;;;4973672;28;20034;-60
2022/08/21 09:35:12;;;;;;;9.35;1.92;;;22.40;59.20;;;;;;4977888;28;20023;-60
2022/08/21 09:37:50;;;;;;;7.85;1.63;;;22.40;59.10;;;;;;4973032;28;20031;-60
2022/08/21 09:40:42;;;;;;;5.35;1.50;;;22.40;59.20;;;;;;4975166;28;20855;-60
2022/08/21 09:43:13;;;;;;;7.28;1.65;;;22.40;59.20;;;;;;4974006;28;20070;-60
2022/08/21 09:45:41;;;;;;;7.18;1.27;;;22.40;59.10;;;;;;4970255;28;20515;-60
2022/08/21 09:48:22;;;;;;;7.18;1.65;;;22.40;59.30;;;;;;4971919;28;20036;-60
2022/08/21 09:50:49;;;;;;;7.10;1.70;;;22.40;59.40;;;;;;4978565;28;20037;-60
2022/08/21 09:53:27;;;;;;;4.55;1.50;;;22.40;59.40;;;;;;5046021;28;20408;-60
2022/08/21 09:58:59;;;;;;;6.00;1.52;;;22.40;59.20;;;;;;5039282;28;20504;-60
2022/08/21 10:01:25;;;;;;;8.23;1.70;;;22.40;59.30;;;;;;5042124;28;20021;-60
2022/08/21 10:04:04;;;;;;;5.53;1.50;;;22.40;59.30;;;;;;5038334;28;20524;-60
2022/08/21 10:06:30;;;;;;;8.55;1.73;;;22.40;59.20;;;;;;5039437;28;20013;-60
2022/08/21 10:09:09;;;;;;;10.75;1.83;;;22.40;59.30;;;;;;5042575;28;20057;-59
2022/08/21 10:11:36;;;;;;;9.05;1.92;;;22.40;59.50;;;;;;5047579;28;20506;-59
2022/08/21 10:14:18;;;;;;;8.77;1.80;;;22.50;59.30;;;;;;5039772;28;20030;-59
2022/08/21 10:16:56;;;;;;;8.88;1.80;;;22.50;59.60;;;;;;5041521;28;20021;-59
2022/08/21 10:19:34;;;;;;;12.93;1.80;;;22.50;59.80;;;;;;5038636;28;20028;-59
2022/08/21 10:22:21;;;;;;;9.50;1.90;;;22.50;59.80;;;;;;5043563;28;20029;-59
2022/08/21 10:25:06;;;;;;;10.23;1.73;;;22.50;59.80;;;;;;5046229;28;20035;-60
2022/08/21 10:27:31;;;;;;;7.30;1.60;;;22.50;59.80;;;;;;5042580;28;20112;-60
2022/08/21 10:30:01;;;;;;;7.13;1.70;;;22.60;59.80;;;;;;5047037;28;20568;-60
2022/08/21 10:32:44;;;;;;;10.23;1.67;;;22.60;59.90;;;;;;5047301;28;20045;-59
2022/08/21 10:35:31;;;;;;;8.15;1.73;;;22.60;60.10;;;;;;5042947;28;20032;-59
2022/08/21 10:38:31;;;;;;;4.70;1.30;;;22.60;59.80;;;;;;5041186;28;20032;-61
2022/08/21 10:41:27;;;;;;;8.63;1.90;;;22.60;59.70;;;;;;5042367;28;20091;-60
2022/08/21 10:44:34;;;;;;;9.30;1.60;;;22.60;59.90;;;;;;5041420;28;20045;-59
2022/08/21 10:47:03;;;;;;;6.93;1.40;;;22.60;59.90;;;;;;5041721;28;20030;-59
2022/08/21 10:49:59;;;;;;;9.80;1.65;;;22.60;59.80;;;;;;5038474;28;20022;-59
2022/08/21 10:52:30;;;;;;;5.55;1.58;;;22.60;60.00;;;;;;5038240;28;20659;-59
2022/08/21 10:55:00;;;;;;;8.23;1.63;;;22.60;59.70;;;;;;5036006;28;20029;-59
2022/08/21 10:57:30;;;;;;;6.75;1.70;;;22.60;59.80;;;;;;5040604;28;20055;-59
2022/08/21 11:00:07;;;;;;;8.40;1.63;;;22.60;59.90;;;;;;5041404;28;20029;-59
2022/08/21 11:02:49;;;;;;;6.30;1.38;;;22.60;59.70;;;;;;5042226;28;20029;-59
2022/08/21 11:05:49;;;;;;;8.40;1.50;;;22.60;59.80;;;;;;5027435;28;20083;-59
2022/08/21 11:08:24;;;;;;;7.53;1.48;;;22.60;59.90;;;;;;5026113;28;20033;-59
2022/08/21 11:11:25;;;;;;;9.45;1.60;;;22.60;59.70;;;;;;5026813;28;20018;-59
2022/08/21 11:14:00;;;;;;;6.55;1.52;;;22.60;60.10;;;;;;5023981;28;20060;-59
2022/08/21 11:16:48;;;;;;;9.05;1.63;;;22.60;60.20;;;;;;5009522;28;20013;-59
2022/08/21 11:19:32;;;;;;;5.38;1.35;;;22.70;60.30;;;;;;5028653;28;20551;-59
2022/08/21 11:22:20;;;;;;;8.20;1.63;;;22.70;60.50;;;;;;5028217;28;20135;-59
2022/08/21 11:25:00;;;;;;;7.45;1.70;;;22.80;60.50;;;;;;5029328;28;20409;-59
2022/08/21 11:28:01;;;;;;;8.23;1.75;;;22.80;60.80;;;;;;5028579;28;20457;-59
2022/08/21 11:30:30;;;;;;;4.97;1.40;;;22.80;60.70;;;;;;5028411;28;20025;-59
2022/08/21 11:33:01;;;;;;;6.75;1.67;;;22.80;60.60;;;;;;5028149;28;20418;-59
2022/08/21 11:35:51;;;;;;;10.15;1.67;;;22.90;60.60;;;;;;5028940;28;20033;-59
2022/08/21 11:38:49;;;;;;;6.90;1.80;;;22.90;60.70;;;;;;5028154;28;20447;-59
2022/08/21 11:41:52;;;;;;;8.18;1.60;;;22.90;60.60;;;;;;5020687;28;20702;-59
2022/08/21 11:44:36;;;;;;;6.05;1.50;;;22.90;60.60;;;;;;5026143;28;20091;-59
2022/08/21 11:47:13;;;;;;;7.93;1.70;;;23.00;60.70;;;;;;5027518;28;20032;-59
2022/08/21 11:49:57;;;;;;;5.70;1.60;;;22.90;60.60;;;;;;5044227;28;20076;-59
2022/08/21 11:52:30;;;;;;;6.55;1.50;;;22.90;60.80;;;;;;5028694;28;20052;-59
2022/08/21 11:55:23;;;;;;;8.90;1.50;;;22.90;60.50;;;;;;5025478;28;20142;-58
2022/08/21 11:57:55;;;;;;;6.45;1.52;;;23.00;60.70;;;;;;5026272;28;20363;-59
2022/08/21 12:00:30;;;;;;;5.13;1.27;;;23.00;60.30;;;;;;5027158;28;20525;-59
2022/08/21 12:02:56;;;;;;;;;;;23.00;60.50;;;;;;5026793;28;20053;-59
2022/08/21 12:05:34;;;;;;;7.85;1.40;;;23.00;60.50;;;;;;5028423;28;19908;-59
2022/08/21 12:08:11;;;;;;;7.28;1.65;;;23.00;60.40;;;;;;5027805;28;20018;-59
2022/08/21 12:10:40;;;;;;;6.43;1.63;;;23.00;60.60;;;;;;5025554;28;20020;-59
2022/08/21 12:13:12;;;;;;;3.25;1.20;;;23.00;60.40;;;;;;5027329;28;20088;-59
2022/08/21 12:15:37;;;;;;;5.90;1.67;;;23.00;60.50;;;;;;5027204;28;20045;-59
2022/08/21 12:18:06;;;;;;;6.88;1.40;;;23.00;60.50;;;;;;5028618;28;20048;-59
2022/08/21 12:20:34;;;;;;;8.50;1.40;;;23.00;60.50;;;;;;5027180;28;20017;-59
2022/08/21 12:23:09;;;;;;;6.80;1.25;;;23.00;60.50;;;;;;5026429;28;20021;-59
2022/08/21 12:25:38;;;;;;;;;;;23.10;60.60;;;;;;5027307;28;20029;-59
2022/08/21 12:28:11;;;;;;;7.55;1.70;;;23.10;60.30;;;;;;5026134;28;19928;-59
2022/08/21 12:30:39;;;;;;;7.20;1.77;;;23.20;60.50;;;;;;5023649;28;20017;-59
2022/08/21 12:33:32;;;;;;;5.70;1.42;;;23.20;60.30;;;;;;5026864;28;20393;-59
2022/08/21 12:36:11;;;;;;;9.02;1.88;;;23.20;60.60;;;;;;5047173;28;20022;-59
2022/08/21 12:39:00;;;;;;;6.55;2.13;;;23.30;60.80;;;;;;5035490;28;20485;-59
2022/08/21 12:41:32;;;;;;;9.57;3.28;;;23.40;61.00;;;;;;5026417;28;20021;-59
2022/08/21 12:44:07;;;;;;;11.27;3.03;;;23.40;61.20;;;;;;5039446;28;20025;-59
2022/08/21 12:46:56;;;;;;;8.07;3.00;;;23.40;61.20;;;;;;5009755;28;20020;-59
2022/08/21 12:49:28;;;;;;;9.10;2.85;;;23.50;61.20;;;;;;5024045;28;20025;-59
2022/08/21 12:52:14;;;;;;;6.22;2.13;;;23.60;61.20;;;;;;5025234;28;20045;-59
2022/08/21 12:54:41;;;;;;;9.73;2.40;;;23.50;60.90;;;;;;5023870;28;20400;-59
2022/08/21 12:57:08;;;;;;;8.02;2.55;;;23.50;60.70;;;;;;5027820;28;20426;-59
2022/08/21 12:59:37;;;;;;;6.15;2.60;;;23.50;61.40;;;;;;5028113;28;20036;-59
2022/08/21 13:02:03;;;;;;;6.70;2.20;;;23.60;61.50;;;;;;5026065;28;20044;-59
2022/08/21 13:04:36;;;;;;;9.60;2.17;;;23.60;61.20;;;;;;5023824;28;20553;-59
2022/08/21 13:07:04;;;;;;;9.90;2.10;;;23.70;61.40;;;;;;5025250;28;20014;-59
2022/08/21 13:09:30;;;;;;;7.70;2.17;;;23.70;60.90;;;;;;5007594;28;20033;-59